createdAt,value
2019-03-18T00:00:17.989Z,13.70
2019-03-18T00:02:46.629Z,13.70
2019-03-18T00:05:15.256Z,13.70
2019-03-18T00:07:43.824Z,13.70
2019-03-18T00:10:12.428Z,13.60
2019-03-18T00:12:41.078Z,13.60
2019-03-18T00:15:10.358Z,13.70
2019-03-18T00:17:38.938Z,13.70
2019-03-18T00:20:09.179Z,13.70
2019-03-18T00:22:37.856Z,13.70
2019-03-18T00:25:11.453Z,13.70
2019-03-18T00:27:40.123Z,13.70
2019-03-18T00:30:19.873Z,13.70
2019-03-18T00:32:48.426Z,13.70
2019-03-18T00:35:17.063Z,13.70
2019-03-18T00:37:45.644Z,13.70
2019-03-18T00:40:18.597Z,13.60
2019-03-18T00:42:47.238Z,13.60
2019-03-18T00:45:15.989Z,13.60
2019-03-18T00:47:44.731Z,13.60
2019-03-18T00:50:14.552Z,13.60
2019-03-18T00:52:43.298Z,13.60
2019-03-18T00:55:11.870Z,13.60
2019-03-18T00:57:40.478Z,13.60
2019-03-18T01:00:11.793Z,13.60
2019-03-18T01:02:40.435Z,13.50
2019-03-18T01:05:09.070Z,13.50
2019-03-18T01:07:37.724Z,13.40
2019-03-18T01:10:15.166Z,13.50
2019-03-18T01:12:43.744Z,13.40
2019-03-18T01:15:13.407Z,13.40
2019-03-18T01:17:42.099Z,13.50
2019-03-18T01:20:14.087Z,13.40
2019-03-18T01:22:42.752Z,13.40
2019-03-18T01:25:11.504Z,13.30
2019-03-18T01:27:40.128Z,13.30
2019-03-18T01:30:10.680Z,13.20
2019-03-18T01:32:39.322Z,13.20
2019-03-18T01:35:09.699Z,13.10
2019-03-18T01:37:38.256Z,13.10
2019-03-18T01:40:09.527Z,13.00
2019-03-18T01:42:38.081Z,13.00
2019-03-18T01:45:39.823Z,13.00
2019-03-18T01:47:57.860Z,13.00
2019-03-18T01:50:26.505Z,13.00
2019-03-18T01:52:55.186Z,13.00
2019-03-18T01:55:23.744Z,13.00
2019-03-18T01:57:52.456Z,13.00
2019-03-18T02:00:21.103Z,13.10
2019-03-18T02:02:51.908Z,13.00
2019-03-18T02:05:20.069Z,13.00
2019-03-18T02:07:48.720Z,12.90
2019-03-18T02:10:17.337Z,13.00
2019-03-18T02:12:45.824Z,13.00
2019-03-18T02:15:16.023Z,12.90
2019-03-18T02:17:44.700Z,12.80
2019-03-18T02:20:15.826Z,12.70
2019-03-18T02:22:44.538Z,12.70
2019-03-18T02:25:13.189Z,12.70
2019-03-18T02:27:41.765Z,12.70
2019-03-18T02:30:17.293Z,12.70
2019-03-18T02:32:45.931Z,12.70
2019-03-18T02:35:14.490Z,12.70
2019-03-18T02:37:43.071Z,12.60
2019-03-18T02:40:12.037Z,12.60
2019-03-18T02:42:40.710Z,12.40
2019-03-18T02:45:10.856Z,12.30
2019-03-18T02:47:39.567Z,12.30
2019-03-18T02:50:09.236Z,12.30
2019-03-18T02:52:37.784Z,12.20
2019-03-18T02:55:07.556Z,12.10
2019-03-18T02:57:36.219Z,12.10
2019-03-18T03:00:08.031Z,12.00
2019-03-18T03:02:36.631Z,11.90
2019-03-18T03:05:07.160Z,11.90
2019-03-18T03:07:35.769Z,11.80
2019-03-18T03:10:05.419Z,11.80
2019-03-18T03:12:34.024Z,11.80
2019-03-18T03:15:02.657Z,11.70
2019-03-18T03:17:31.230Z,11.80
2019-03-18T03:19:59.904Z,11.70
2019-03-18T03:22:28.413Z,11.70
2019-03-18T03:24:57.029Z,11.80
2019-03-18T03:27:25.670Z,11.90
2019-03-18T03:29:54.327Z,11.80
2019-03-18T03:32:22.954Z,11.80
2019-03-18T03:34:51.595Z,11.80
2019-03-18T03:37:20.209Z,11.80
2019-03-18T03:39:48.786Z,11.90
2019-03-18T03:42:17.447Z,11.90
2019-03-18T03:44:46.054Z,12.00
2019-03-18T03:47:14.644Z,12.00
2019-03-18T03:49:43.267Z,12.00
2019-03-18T03:52:11.907Z,12.00
2019-03-18T03:54:40.549Z,12.10
2019-03-18T03:57:09.220Z,12.10
2019-03-18T03:59:37.828Z,12.20
2019-03-18T04:02:06.523Z,12.20
2019-03-18T04:04:35.098Z,12.10
2019-03-18T04:07:03.756Z,12.10
2019-03-18T04:09:32.434Z,12.00
2019-03-18T04:12:01.026Z,12.00
2019-03-18T04:14:29.726Z,12.10
2019-03-18T04:17:02.663Z,12.10
2019-03-18T04:19:28.614Z,12.00
2019-03-18T04:21:57.226Z,12.00
2019-03-18T04:24:25.729Z,12.00
2019-03-18T04:26:54.433Z,12.10
2019-03-18T04:29:23.416Z,12.20
2019-03-18T04:31:51.975Z,12.20
2019-03-18T04:34:20.685Z,12.20
2019-03-18T04:36:49.340Z,12.20
2019-03-18T04:39:17.964Z,12.20
2019-03-18T04:41:46.578Z,12.20
2019-03-18T04:44:15.069Z,12.20
2019-03-18T04:46:43.713Z,12.20
2019-03-18T04:49:12.316Z,12.20
2019-03-18T04:51:40.961Z,12.20
2019-03-18T04:54:09.665Z,12.20
2019-03-18T04:56:38.314Z,12.20
2019-03-18T04:59:06.902Z,12.20
2019-03-18T05:01:35.490Z,12.20
2019-03-18T05:04:04.079Z,12.20
2019-03-18T05:06:32.632Z,12.10
2019-03-18T05:09:01.289Z,12.20
2019-03-18T05:11:29.934Z,12.10
2019-03-18T05:13:58.643Z,12.10
2019-03-18T05:16:27.285Z,12.10
2019-03-18T05:18:55.978Z,12.20
2019-03-18T05:21:24.551Z,12.30
2019-03-18T05:23:53.184Z,12.10
2019-03-18T05:26:22.501Z,12.10
2019-03-18T05:28:51.271Z,11.90
2019-03-18T05:31:19.964Z,11.70
2019-03-18T05:33:48.619Z,11.50
2019-03-18T05:36:17.243Z,11.30
2019-03-18T05:38:45.933Z,11.10
2019-03-18T05:41:14.561Z,10.90
2019-03-18T05:43:43.168Z,10.80
2019-03-18T05:46:11.795Z,10.80
2019-03-18T05:48:40.300Z,10.80
2019-03-18T05:51:08.973Z,10.80
2019-03-18T05:53:37.550Z,10.70
2019-03-18T05:56:06.242Z,10.70
2019-03-18T05:58:34.744Z,10.80
2019-03-18T06:01:12.585Z,10.70
2019-03-18T06:03:41.384Z,10.80
2019-03-18T06:06:10.020Z,10.80
2019-03-18T06:08:38.714Z,10.80
2019-03-18T06:11:07.354Z,10.90
2019-03-18T06:13:35.968Z,10.90
2019-03-18T06:16:04.602Z,10.90
2019-03-18T06:18:33.246Z,10.90
2019-03-18T06:21:01.921Z,10.90
2019-03-18T06:23:30.569Z,10.90
2019-03-18T06:25:59.190Z,10.90
2019-03-18T06:28:27.771Z,10.80
2019-03-18T06:30:56.391Z,10.80
2019-03-18T06:33:25.067Z,10.80
2019-03-18T06:35:53.721Z,10.90
2019-03-18T06:38:22.420Z,11.00
2019-03-18T06:40:51.062Z,11.10
2019-03-18T06:43:19.629Z,11.00
2019-03-18T06:45:48.236Z,11.10
2019-03-18T06:48:16.792Z,11.00
2019-03-18T06:50:45.404Z,11.10
2019-03-18T06:53:13.956Z,11.10
2019-03-18T06:55:42.583Z,11.10
2019-03-18T06:58:11.229Z,11.00
2019-03-18T07:00:39.865Z,11.10
2019-03-18T07:03:08.487Z,11.10
2019-03-18T07:05:37.035Z,11.20
2019-03-18T07:08:05.660Z,11.20
2019-03-18T07:10:34.298Z,11.10
2019-03-18T07:13:02.923Z,11.10
2019-03-18T07:15:31.602Z,11.00
2019-03-18T07:18:00.249Z,11.10
2019-03-18T07:20:28.857Z,11.00
2019-03-18T07:22:57.501Z,10.90
2019-03-18T07:25:26.126Z,10.80
2019-03-18T07:27:54.784Z,10.90
2019-03-18T07:30:23.299Z,10.90
2019-03-18T07:32:51.944Z,10.90
2019-03-18T07:35:20.485Z,10.70
2019-03-18T07:37:49.071Z,10.70
2019-03-18T07:40:17.960Z,10.70
2019-03-18T07:42:47.435Z,10.70
2019-03-18T07:45:16.412Z,10.60
2019-03-18T07:47:45.313Z,10.50
2019-03-18T07:50:15.164Z,10.60
2019-03-18T07:52:43.836Z,10.50
2019-03-18T07:55:12.481Z,10.70
2019-03-18T07:57:41.089Z,10.70
2019-03-18T08:00:12.794Z,10.80
2019-03-18T08:02:41.366Z,10.70
2019-03-18T08:05:10.427Z,10.80
2019-03-18T08:07:39.095Z,10.80
2019-03-18T08:10:14.060Z,10.90
2019-03-18T08:12:42.634Z,10.90
2019-03-18T08:15:12.006Z,10.90
2019-03-18T08:17:40.617Z,11.10
2019-03-18T08:20:12.219Z,11.10
2019-03-18T08:22:40.922Z,11.20
2019-03-18T08:25:10.561Z,11.40
2019-03-18T08:27:39.246Z,11.50
2019-03-18T08:30:18.736Z,11.50
2019-03-18T08:32:47.494Z,11.40
2019-03-18T08:35:16.224Z,11.40
2019-03-18T08:37:44.716Z,11.40
2019-03-18T08:40:13.460Z,11.40
2019-03-18T08:42:42.166Z,11.50
2019-03-18T08:45:15.350Z,11.60
2019-03-18T08:47:44.045Z,11.70
2019-03-18T08:50:12.970Z,11.80
2019-03-18T08:52:41.765Z,12.00
2019-03-18T08:55:11.098Z,12.10
2019-03-18T08:57:39.796Z,12.40
2019-03-18T09:00:16.393Z,12.50
2019-03-18T09:02:45.098Z,12.60
2019-03-18T09:05:13.662Z,12.80
2019-03-18T09:07:42.292Z,12.80
2019-03-18T09:10:17.932Z,13.00
2019-03-18T09:12:46.595Z,13.10
2019-03-18T09:15:15.253Z,13.20
2019-03-18T09:17:43.862Z,13.20
2019-03-18T09:20:17.280Z,13.20
2019-03-18T09:22:45.897Z,13.20
2019-03-18T09:25:14.445Z,13.10
2019-03-18T09:27:43.124Z,13.20
2019-03-18T09:30:16.894Z,13.20
2019-03-18T09:32:45.587Z,13.20
2019-03-18T09:35:14.240Z,13.20
2019-03-18T09:37:42.813Z,13.20
2019-03-18T09:40:13.651Z,13.20
2019-03-18T09:42:42.231Z,13.20
2019-03-18T09:45:15.775Z,13.20
2019-03-18T09:47:44.310Z,13.00
2019-03-18T09:50:13.297Z,13.00
2019-03-18T09:52:42.046Z,13.00
2019-03-18T09:55:10.723Z,13.00
2019-03-18T09:57:39.365Z,13.10
2019-03-18T10:00:19.566Z,13.00
2019-03-18T10:02:48.193Z,13.10
2019-03-18T10:05:16.932Z,13.10
2019-03-18T10:07:45.566Z,13.20
2019-03-18T10:10:14.620Z,13.20
2019-03-18T10:12:43.329Z,13.30
2019-03-18T10:15:15.141Z,13.40
2019-03-18T10:17:43.806Z,13.40
2019-03-18T10:20:12.435Z,13.30
2019-03-18T10:22:41.114Z,13.30
2019-03-18T10:25:10.185Z,13.30
2019-03-18T10:27:38.855Z,13.40
2019-03-18T10:30:13.495Z,13.90
2019-03-18T10:32:42.089Z,15.30
2019-03-18T10:35:10.817Z,16.20
2019-03-18T10:37:39.448Z,16.40
2019-03-18T10:40:15.449Z,16.10
2019-03-18T10:42:44.039Z,15.40
2019-03-18T10:45:13.809Z,14.80
2019-03-18T10:47:42.439Z,14.30
2019-03-18T10:50:12.724Z,13.80
2019-03-18T10:52:41.477Z,13.50
2019-03-18T10:55:10.764Z,13.30
2019-03-18T10:57:39.351Z,13.10
2019-03-18T11:00:11.797Z,12.90
2019-03-18T11:02:40.471Z,12.90
2019-03-18T11:05:09.812Z,12.70
2019-03-18T11:07:38.558Z,12.80
2019-03-18T11:10:12.494Z,12.90
2019-03-18T11:12:40.500Z,12.90
2019-03-18T11:15:14.116Z,12.90
2019-03-18T11:17:42.736Z,13.10
2019-03-18T11:20:13.172Z,13.20
2019-03-18T11:22:41.849Z,13.20
2019-03-18T11:25:12.114Z,13.20
2019-03-18T11:27:40.782Z,13.50
2019-03-18T11:30:12.226Z,13.60
2019-03-18T11:32:40.725Z,13.70
2019-03-18T11:35:09.322Z,14.30
2019-03-18T11:37:37.993Z,14.50
2019-03-18T11:40:12.524Z,14.90
2019-03-18T11:42:41.189Z,14.80
2019-03-18T11:45:12.289Z,15.00
2019-03-18T11:47:41.556Z,15.10
2019-03-18T11:50:13.779Z,15.40
2019-03-18T11:52:41.661Z,15.50
2019-03-18T11:55:13.333Z,15.40
2019-03-18T11:57:41.892Z,15.20
2019-03-18T12:00:18.864Z,15.20
2019-03-18T12:02:47.557Z,15.00
2019-03-18T12:05:23.977Z,15.20
2019-03-18T12:07:52.551Z,16.10
2019-03-18T12:10:21.635Z,17.30
2019-03-18T12:12:50.239Z,18.00
2019-03-18T12:15:21.510Z,17.90
2019-03-18T12:17:50.460Z,18.40
2019-03-18T12:20:24.894Z,18.20
2019-03-18T12:22:49.308Z,18.10
2019-03-18T12:25:17.962Z,17.20
2019-03-18T12:27:46.591Z,17.20
2019-03-18T12:30:25.506Z,17.30
2019-03-18T12:32:54.203Z,17.30
2019-03-18T12:35:22.831Z,17.40
2019-03-18T12:37:51.541Z,17.60
2019-03-18T12:40:20.202Z,17.60
2019-03-18T12:42:48.935Z,17.80
2019-03-18T12:45:21.247Z,18.10
2019-03-18T12:47:49.882Z,18.00
2019-03-18T12:50:36.874Z,17.50
2019-03-18T12:52:53.611Z,16.40
2019-03-18T12:55:22.283Z,15.80
2019-03-18T12:57:50.983Z,15.90
2019-03-18T13:00:31.888Z,16.20
2019-03-18T13:03:00.531Z,16.60
2019-03-18T13:05:29.232Z,17.10
2019-03-18T13:07:57.927Z,17.00
2019-03-18T13:10:26.546Z,17.00
2019-03-18T13:12:55.203Z,16.90
2019-03-18T13:15:23.826Z,17.20
2019-03-18T13:17:52.459Z,17.10
2019-03-18T13:20:21.979Z,17.10
2019-03-18T13:22:53.763Z,17.00
2019-03-18T13:25:21.031Z,16.60
2019-03-18T13:27:49.707Z,16.50
2019-03-18T13:30:21.590Z,16.20
2019-03-18T13:32:50.172Z,15.90
2019-03-18T13:35:18.836Z,15.70
2019-03-18T13:37:47.579Z,15.30
2019-03-18T13:40:19.353Z,15.70
2019-03-18T13:42:48.009Z,16.20
2019-03-18T13:45:25.932Z,16.20
2019-03-18T13:47:54.661Z,16.50
2019-03-18T13:50:24.133Z,16.40
2019-03-18T13:52:52.850Z,16.30
2019-03-18T13:55:21.474Z,15.90
2019-03-18T13:57:50.128Z,16.00
2019-03-18T14:00:20.856Z,16.30
2019-03-18T14:02:49.497Z,16.70
2019-03-18T14:05:18.172Z,16.90
2019-03-18T14:07:59.008Z,17.10
2019-03-18T14:10:19.396Z,17.20
2019-03-18T14:12:48.273Z,17.10
2019-03-18T14:15:26.810Z,16.90
2019-03-18T14:17:55.478Z,16.30
2019-03-18T14:20:25.462Z,16.00
2019-03-18T14:22:54.153Z,15.80
2019-03-18T14:25:22.845Z,15.70
2019-03-18T14:27:51.585Z,15.80
2019-03-18T14:30:21.348Z,15.50
2019-03-18T14:32:49.945Z,15.40
2019-03-18T14:35:21.429Z,15.50
2019-03-18T14:37:48.930Z,15.50
2019-03-18T14:40:19.198Z,15.40
2019-03-18T14:42:47.821Z,15.30
2019-03-18T14:45:20.574Z,15.50
2019-03-18T14:47:49.193Z,15.60
2019-03-18T14:50:18.334Z,15.60
2019-03-18T14:52:46.959Z,15.70
2019-03-18T14:55:16.812Z,15.50
2019-03-18T14:57:45.502Z,15.20
2019-03-18T15:00:17.088Z,15.10
2019-03-18T15:02:45.660Z,14.80
2019-03-18T15:05:15.420Z,14.60
2019-03-18T15:07:44.082Z,14.70
2019-03-18T15:10:28.356Z,14.70
2019-03-18T15:12:56.990Z,14.60
2019-03-18T15:15:25.603Z,14.50
2019-03-18T15:17:54.281Z,14.30
2019-03-18T15:20:25.477Z,14.00
2019-03-18T15:22:54.118Z,13.90
2019-03-18T15:25:24.692Z,13.90
2019-03-18T15:27:53.280Z,13.80
2019-03-18T15:30:21.964Z,13.70
2019-03-18T15:32:50.617Z,13.60
2019-03-18T15:35:19.267Z,13.50
2019-03-18T15:37:47.902Z,13.50
2019-03-18T15:40:19.646Z,13.40
2019-03-18T15:42:48.307Z,13.30
2019-03-18T15:45:21.927Z,13.30
2019-03-18T15:47:50.523Z,13.40
2019-03-18T15:50:22.969Z,13.40
2019-03-18T15:52:51.592Z,13.30
2019-03-18T15:55:20.244Z,13.20
2019-03-18T15:57:48.917Z,13.20
2019-03-18T16:00:25.743Z,13.00
2019-03-18T16:02:54.361Z,13.00
2019-03-18T16:05:23.061Z,13.10
2019-03-18T16:07:51.769Z,13.00
2019-03-18T16:10:21.063Z,12.80
2019-03-18T16:12:49.753Z,12.70
2019-03-18T16:15:18.642Z,12.60
2019-03-18T16:17:47.282Z,12.50
2019-03-18T16:20:21.152Z,12.50
2019-03-18T16:22:49.800Z,12.40
2019-03-18T16:25:18.437Z,12.40
2019-03-18T16:27:47.065Z,12.30
2019-03-18T16:30:19.702Z,12.10
2019-03-18T16:32:48.378Z,11.90
2019-03-18T16:35:17.528Z,11.70
2019-03-18T16:37:46.229Z,11.60
2019-03-18T16:40:23.100Z,11.60
2019-03-18T16:42:51.842Z,11.60
2019-03-18T16:45:20.841Z,11.40
2019-03-18T16:47:49.374Z,11.40
2019-03-18T16:50:26.179Z,11.40
2019-03-18T16:52:54.732Z,11.30
2019-03-18T16:55:23.415Z,11.20
2019-03-18T16:57:51.991Z,11.20
2019-03-18T17:00:25.784Z,11.10
2019-03-18T17:02:54.441Z,11.10
2019-03-18T17:05:22.988Z,11.10
2019-03-18T17:07:54.082Z,11.10
2019-03-18T17:10:21.891Z,11.00
2019-03-18T17:12:50.733Z,11.10
2019-03-18T17:15:20.968Z,11.00
2019-03-18T17:17:50.591Z,11.00
2019-03-18T17:20:19.316Z,11.00
2019-03-18T17:22:49.693Z,11.00
2019-03-18T17:25:23.671Z,10.90
2019-03-18T17:27:52.356Z,10.90
2019-03-18T17:30:21.397Z,11.00
2019-03-18T17:32:50.089Z,11.00
2019-03-18T17:35:18.687Z,10.90
2019-03-18T17:37:47.352Z,10.90
2019-03-18T17:40:18.286Z,10.80
2019-03-18T17:42:46.916Z,10.70
2019-03-18T17:45:16.506Z,10.70
2019-03-18T17:47:45.114Z,10.70
2019-03-18T17:50:21.934Z,10.70
2019-03-18T17:53:01.860Z,10.80
2019-03-18T17:55:20.914Z,10.70
2019-03-18T17:57:49.523Z,10.70
2019-03-18T18:00:36.352Z,10.70
2019-03-18T18:03:04.945Z,10.60
2019-03-18T18:05:33.558Z,10.60
2019-03-18T18:08:02.082Z,10.60
2019-03-18T18:10:30.713Z,10.60
2019-03-18T18:12:59.433Z,10.70
2019-03-18T18:15:28.056Z,10.60
2019-03-18T18:17:56.625Z,10.60
2019-03-18T18:20:25.244Z,10.70
2019-03-18T18:22:53.935Z,10.70
2019-03-18T18:25:22.615Z,10.70
2019-03-18T18:27:51.261Z,10.70
2019-03-18T18:30:21.597Z,10.70
2019-03-18T18:32:50.194Z,10.70
2019-03-18T18:35:18.830Z,10.70
2019-03-18T18:37:47.593Z,10.70
2019-03-18T18:40:24.788Z,10.70
2019-03-18T18:42:53.415Z,10.70
2019-03-18T18:45:22.058Z,10.70
2019-03-18T18:47:50.704Z,10.70
2019-03-18T18:50:19.290Z,10.80
2019-03-18T18:52:47.976Z,10.80
2019-03-18T18:55:16.589Z,10.70
2019-03-18T18:57:45.272Z,10.70
2019-03-18T19:00:21.903Z,10.70
2019-03-18T19:02:50.534Z,10.60
2019-03-18T19:05:19.191Z,10.60
2019-03-18T19:07:47.864Z,10.50
2019-03-18T19:10:17.637Z,10.50
2019-03-18T19:12:46.315Z,10.40
2019-03-18T19:15:29.378Z,10.40
2019-03-18T19:17:58.074Z,10.50
2019-03-18T19:20:26.721Z,10.40
2019-03-18T19:22:55.315Z,10.40
2019-03-18T19:25:23.967Z,10.40
2019-03-18T19:27:52.611Z,10.30
2019-03-18T19:30:22.540Z,10.30
2019-03-18T19:32:51.197Z,10.20
2019-03-18T19:35:19.871Z,10.20
2019-03-18T19:37:48.545Z,10.10
2019-03-18T19:40:19.356Z,10.00
2019-03-18T19:42:48.006Z,9.90
2019-03-18T19:45:16.544Z,9.90
2019-03-18T19:47:45.117Z,9.80
2019-03-18T19:50:27.725Z,9.80
2019-03-18T19:52:56.368Z,9.70
2019-03-18T19:55:25.092Z,9.70
2019-03-18T19:57:54.574Z,9.60
2019-03-18T20:00:27.583Z,9.60
2019-03-18T20:02:56.259Z,9.60
2019-03-18T20:05:24.822Z,9.50
2019-03-18T20:07:53.454Z,9.50
2019-03-18T20:10:22.613Z,9.50
2019-03-18T20:12:51.253Z,9.50
2019-03-18T20:15:20.275Z,9.40
2019-03-18T20:17:48.935Z,9.40
2019-03-18T20:20:19.520Z,9.40
2019-03-18T20:22:48.225Z,9.30
2019-03-18T20:25:16.869Z,9.40
2019-03-18T20:27:45.472Z,9.30
2019-03-18T20:30:21.950Z,9.30
2019-03-18T20:32:50.516Z,9.20
2019-03-18T20:35:23.214Z,9.20
2019-03-18T20:37:52.389Z,9.30
2019-03-18T20:40:21.286Z,9.30
2019-03-18T20:42:50.017Z,9.30
2019-03-18T20:45:25.630Z,9.30
2019-03-18T20:47:54.344Z,9.30
2019-03-18T20:50:24.008Z,9.20
2019-03-18T20:52:52.683Z,9.20
2019-03-18T20:55:21.297Z,9.20
2019-03-18T20:57:49.965Z,9.20
2019-03-18T21:00:22.454Z,9.20
2019-03-18T21:02:51.134Z,9.10
2019-03-18T21:05:19.734Z,9.10
2019-03-18T21:07:48.368Z,9.20
2019-03-18T21:10:17.999Z,9.10
2019-03-18T21:12:46.546Z,9.10
2019-03-18T21:15:17.228Z,9.10
2019-03-18T21:17:45.847Z,9.00
2019-03-18T21:20:25.362Z,9.00
2019-03-18T21:22:54.065Z,9.00
2019-03-18T21:25:22.688Z,9.00
2019-03-18T21:27:51.300Z,9.00
2019-03-18T21:30:23.338Z,8.90
2019-03-18T21:32:51.964Z,9.00
2019-03-18T21:35:20.485Z,8.90
2019-03-18T21:37:49.180Z,8.90
2019-03-18T21:40:18.885Z,8.90
2019-03-18T21:42:47.535Z,9.00
2019-03-18T21:45:19.312Z,9.00
2019-03-18T21:47:47.981Z,8.90
2019-03-18T21:50:17.021Z,8.90
2019-03-18T21:52:45.627Z,8.90
2019-03-18T21:55:15.258Z,8.90
2019-03-18T21:57:43.899Z,8.90
2019-03-18T22:00:20.316Z,8.70
2019-03-18T22:02:49.043Z,8.70
2019-03-18T22:05:17.706Z,8.70
2019-03-18T22:07:46.359Z,8.70
2019-03-18T22:10:16.369Z,8.70
2019-03-18T22:12:44.817Z,8.70
2019-03-18T22:15:14.900Z,8.70
2019-03-18T22:17:43.557Z,8.60
2019-03-18T22:20:21.876Z,8.50
2019-03-18T22:22:50.435Z,8.50
2019-03-18T22:25:19.033Z,8.50
2019-03-18T22:27:47.673Z,8.40
2019-03-18T22:30:17.436Z,8.40
2019-03-18T22:32:46.126Z,8.40
2019-03-18T22:35:14.696Z,8.40
2019-03-18T22:37:43.289Z,8.40
2019-03-18T22:40:18.417Z,8.50
2019-03-18T22:42:47.023Z,8.50
2019-03-18T22:45:18.462Z,8.50
2019-03-18T22:47:47.175Z,8.40
2019-03-18T22:50:16.923Z,8.40
2019-03-18T22:52:45.564Z,8.40
2019-03-18T22:55:14.640Z,8.30
2019-03-18T22:57:43.302Z,8.30
2019-03-18T23:00:25.881Z,8.30
2019-03-18T23:02:54.479Z,8.30
2019-03-18T23:05:23.136Z,8.30
2019-03-18T23:07:51.778Z,8.10
2019-03-18T23:10:20.369Z,8.10
2019-03-18T23:12:49.010Z,8.00
2019-03-18T23:15:17.678Z,8.00
2019-03-18T23:17:46.182Z,8.00
2019-03-18T23:20:14.880Z,8.00
2019-03-18T23:22:43.510Z,8.00
2019-03-18T23:25:12.183Z,8.10
2019-03-18T23:27:40.868Z,8.00
2019-03-18T23:30:11.692Z,8.00
2019-03-18T23:32:40.356Z,8.00
2019-03-18T23:35:08.916Z,7.90
2019-03-18T23:37:37.601Z,7.80
2019-03-18T23:40:08.396Z,7.90
2019-03-18T23:42:37.005Z,8.00
2019-03-18T23:45:06.828Z,8.00
2019-03-18T23:47:35.487Z,8.00
2019-03-18T23:50:06.435Z,8.10
2019-03-18T23:52:35.092Z,8.10
2019-03-18T23:55:05.950Z,8.20
2019-03-18T23:57:34.558Z,8.20
